Time;durP1;ratioP1;P1;durP2;ratioP2;P2;SDS_P1;SDS_P2;PMS_P1;PMS_P2;Temp;Humidity;BMP_temperature;BMP_pressure;BME280_temperature;BME280_humidity;BME280_pressure;Samples;Min_cycle;Max_cycle;Signal;HPM_P1;HPM_P2
2023/03/05 00:00:38;;;;;;;40.17;21.00;;;2.60;99.90;;;;;;4994209;28;20184;-31
2023/03/05 00:03:04;;;;;;;44.70;22.37;;;2.60;99.90;;;;;;4976429;28;20184;-30
2023/03/05 00:05:29;;;;;;;47.30;22.57;;;2.60;99.90;;;;;;4992099;28;20180;-30
2023/03/05 00:07:55;;;;;;;42.73;22.10;;;2.70;99.90;;;;;;4993735;28;20268;-30
2023/03/05 00:10:21;;;;;;;53.93;26.67;;;2.70;99.90;;;;;;4989433;28;20172;-30
2023/03/05 00:12:47;;;;;;;51.60;24.87;;;2.70;99.90;;;;;;4994095;28;20215;-31
2023/03/05 00:15:13;;;;;;;46.27;22.33;;;2.70;99.90;;;;;;4993927;28;20172;-29
2023/03/05 00:17:38;;;;;;;43.77;21.23;;;2.70;99.90;;;;;;4960291;28;20202;-30
2023/03/05 00:20:04;;;;;;;45.97;21.00;;;2.60;99.90;;;;;;4976019;28;20657;-31
2023/03/05 00:22:30;;;;;;;43.97;21.07;;;2.60;99.90;;;;;;4976480;28;20244;-30
2023/03/05 00:24:56;;;;;;;42.27;22.77;;;2.60;99.90;;;;;;4991810;28;20272;-30
2023/03/05 00:27:22;;;;;;;51.57;24.77;;;2.70;99.90;;;;;;4975890;28;20302;-30
2023/03/05 00:29:47;;;;;;;46.57;22.00;;;2.60;99.90;;;;;;4975626;28;20184;-30
2023/03/05 00:32:13;;;;;;;41.30;21.23;;;2.60;99.90;;;;;;4992157;28;20183;-31
2023/03/05 00:34:39;;;;;;;48.07;22.40;;;2.60;99.90;;;;;;4975742;28;20274;-31
2023/03/05 00:37:05;;;;;;;41.97;21.93;;;2.60;99.90;;;;;;4975721;28;20226;-31
2023/03/05 00:39:30;;;;;;;47.07;22.50;;;2.60;99.90;;;;;;4993150;28;20179;-31
2023/03/05 00:41:56;;;;;;;47.90;23.00;;;2.60;99.90;;;;;;4975874;28;20187;-31
2023/03/05 00:44:22;;;;;;;47.87;22.53;;;2.60;99.90;;;;;;4975383;28;20183;-31
2023/03/05 00:46:49;;;;;;;43.40;21.50;;;2.60;99.90;;;;;;4975842;28;20211;-31
2023/03/05 00:49:15;;;;;;;40.37;21.43;;;2.50;99.90;;;;;;4975541;28;20187;-30
2023/03/05 00:51:41;;;;;;;42.43;21.53;;;2.50;99.90;;;;;;4976108;28;20207;-30
2023/03/05 00:54:07;;;;;;;43.17;21.33;;;2.60;99.90;;;;;;4992239;28;20188;-30
2023/03/05 00:56:33;;;;;;;40.63;20.27;;;2.50;99.90;;;;;;4975310;28;20204;-30
2023/03/05 00:58:59;;;;;;;43.87;20.93;;;2.60;99.90;;;;;;4975464;28;20193;-30
2023/03/05 01:01:25;;;;;;;42.27;21.83;;;2.60;99.90;;;;;;4975267;28;20184;-30
2023/03/05 01:03:51;;;;;;;40.23;20.07;;;2.60;99.90;;;;;;4975226;28;20191;-30
2023/03/05 01:06:18;;;;;;;47.40;22.33;;;2.60;99.90;;;;;;4992715;28;20208;-30
2023/03/05 01:08:44;;;;;;;47.03;22.07;;;2.60;99.90;;;;;;4974924;28;20182;-31
2023/03/05 01:11:10;;;;;;;42.27;21.87;;;2.60;99.90;;;;;;4984529;28;20210;-30
2023/03/05 01:13:37;;;;;;;39.53;21.03;;;2.60;99.90;;;;;;4960893;28;20187;-31
2023/03/05 01:16:03;;;;;;;45.43;22.00;;;2.60;99.90;;;;;;4975029;28;20200;-30
2023/03/05 01:18:29;;;;;;;45.17;21.07;;;2.60;99.90;;;;;;4974828;28;20187;-29
2023/03/05 01:20:55;;;;;;;44.57;22.03;;;2.60;99.90;;;;;;4975055;28;20180;-29
2023/03/05 01:23:20;;;;;;;40.70;20.03;;;2.60;99.90;;;;;;4974757;28;20680;-29
2023/03/05 01:25:55;;;;;;;47.03;21.27;;;2.70;99.90;;;;;;4966372;28;20245;-30
2023/03/05 01:28:22;;;;;;;43.50;20.70;;;2.60;99.90;;;;;;4974860;28;20175;-30
2023/03/05 01:30:47;;;;;;;41.87;21.53;;;2.60;99.90;;;;;;4974800;28;20278;-30
2023/03/05 01:33:13;;;;;;;45.13;22.53;;;2.60;99.90;;;;;;4958507;28;20263;-29
2023/03/05 01:35:39;;;;;;;48.57;22.47;;;2.60;99.90;;;;;;4974303;28;20234;-30
2023/03/05 01:38:05;;;;;;;42.77;20.37;;;2.60;99.90;;;;;;4992045;28;20194;-30
2023/03/05 01:40:31;;;;;;;46.07;21.80;;;2.60;99.90;;;;;;4958677;28;20187;-30
2023/03/05 01:43:18;;;;;;;48.23;22.63;;;2.60;99.90;;;;;;4991860;28;20186;-29
2023/03/05 01:46:21;;;;;;;40.63;21.33;;;2.60;99.90;;;;;;4958355;28;20214;-30
2023/03/05 01:48:53;;;;;;;45.93;21.83;;;2.60;99.90;;;;;;4955300;28;20179;-29
2023/03/05 01:51:21;;;;;;;47.33;21.97;;;2.60;99.90;;;;;;4972229;28;20176;-30
2023/03/05 01:53:47;;;;;;;42.30;21.80;;;2.60;99.90;;;;;;4971454;28;20210;-30
2023/03/05 01:56:13;;;;;;;46.57;21.77;;;2.60;99.90;;;;;;4974526;28;20274;-30
2023/03/05 01:58:39;;;;;;;42.53;21.63;;;2.60;99.90;;;;;;4974339;28;20190;-30
2023/03/05 02:01:05;;;;;;;44.33;21.03;;;2.50;99.90;;;;;;4974307;28;20241;-30
2023/03/05 02:03:32;;;;;;;42.40;20.80;;;2.50;99.90;;;;;;4991748;28;20184;-29
2023/03/05 02:05:58;;;;;;;46.30;22.40;;;2.50;99.90;;;;;;4957883;28;20261;-30
2023/03/05 02:08:24;;;;;;;37.50;21.23;;;2.50;99.90;;;;;;4969599;28;20180;-30
2023/03/05 02:10:56;;;;;;;48.17;22.03;;;2.60;99.90;;;;;;4955113;28;20239;-30
2023/03/05 02:13:28;;;;;;;43.90;20.70;;;2.60;99.90;;;;;;4972157;28;20175;-30
2023/03/05 02:15:57;;;;;;;41.63;21.03;;;2.60;99.90;;;;;;4974420;28;20195;-30
2023/03/05 02:18:24;;;;;;;42.63;22.60;;;2.50;99.90;;;;;;4974244;28;20187;-30
2023/03/05 02:20:56;;;;;;;46.13;21.93;;;2.60;99.90;;;;;;4974071;28;20211;-30
2023/03/05 02:23:25;;;;;;;41.47;21.10;;;2.60;99.90;;;;;;4973685;28;20187;-30
2023/03/05 02:25:51;;;;;;;43.40;21.40;;;2.60;99.90;;;;;;4991175;28;20278;-30
2023/03/05 02:28:19;;;;;;;43.90;21.17;;;2.60;99.90;;;;;;4959643;28;20187;-30
2023/03/05 02:30:45;;;;;;;44.43;21.83;;;2.60;99.90;;;;;;4961923;28;20186;-30
2023/03/05 02:33:13;;;;;;;43.30;21.57;;;2.60;99.90;;;;;;4961502;28;20178;-30
2023/03/05 02:35:39;;;;;;;45.33;22.20;;;2.60;99.90;;;;;;4961753;28;20256;-30
2023/03/05 02:38:05;;;;;;;44.47;22.03;;;2.60;99.90;;;;;;4977530;28;20226;-30
2023/03/05 02:40:31;;;;;;;41.97;20.83;;;2.60;99.90;;;;;;4962075;28;20183;-30
2023/03/05 02:42:57;;;;;;;46.50;22.17;;;2.60;99.90;;;;;;4977910;28;20234;-30
2023/03/05 02:45:23;;;;;;;44.00;21.97;;;2.60;99.90;;;;;;4961910;28;20179;-30
2023/03/05 02:47:49;;;;;;;45.23;22.63;;;2.60;99.90;;;;;;4957925;28;20216;-30
2023/03/05 02:50:15;;;;;;;43.27;20.80;;;2.60;99.90;;;;;;4942640;28;20250;-30
2023/03/05 02:52:41;;;;;;;43.57;20.87;;;2.60;99.90;;;;;;4987705;28;20187;-30
2023/03/05 02:55:12;;;;;;;44.13;20.90;;;2.60;99.90;;;;;;4977306;28;20211;-30
2023/03/05 02:57:39;;;;;;;42.33;21.50;;;2.60;99.90;;;;;;4977390;28;20222;-30
2023/03/05 03:00:06;;;;;;;42.60;20.23;;;2.60;99.90;;;;;;4977562;28;20179;-30
2023/03/05 03:02:32;;;;;;;43.33;22.10;;;2.60;99.90;;;;;;4994559;28;20179;-31
2023/03/05 03:04:58;;;;;;;43.40;22.07;;;2.60;99.90;;;;;;4977686;28;20183;-31
2023/03/05 03:07:23;;;;;;;38.47;20.70;;;2.60;99.90;;;;;;4960681;28;20218;-30
2023/03/05 03:09:49;;;;;;;42.13;22.20;;;2.70;99.90;;;;;;4977179;28;20227;-30
2023/03/05 03:12:15;;;;;;;41.40;22.07;;;2.60;99.90;;;;;;4977163;28;20176;-30
2023/03/05 03:14:42;;;;;;;44.00;20.90;;;2.60;99.90;;;;;;4977330;28;20176;-30
2023/03/05 03:17:14;;;;;;;44.00;22.40;;;2.70;99.90;;;;;;4977383;28;20199;-30
2023/03/05 03:19:41;;;;;;;43.33;20.87;;;2.70;99.90;;;;;;4961240;28;20203;-30
2023/03/05 03:22:08;;;;;;;40.80;19.47;;;2.70;99.90;;;;;;4977120;28;20179;-30
2023/03/05 03:24:35;;;;;;;45.07;21.60;;;2.70;99.90;;;;;;4994186;28;20187;-30
2023/03/05 03:27:02;;;;;;;44.20;21.57;;;2.60;99.90;;;;;;4994095;28;20315;-30
2023/03/05 03:29:28;;;;;;;45.67;22.17;;;2.60;99.90;;;;;;4994802;28;20178;-30
2023/03/05 03:31:53;;;;;;;45.17;21.83;;;2.60;99.90;;;;;;4976682;28;20191;-30
2023/03/05 03:34:20;;;;;;;43.53;21.87;;;2.70;99.90;;;;;;4976827;28;20172;-30
2023/03/05 03:36:47;;;;;;;42.63;21.97;;;2.70;99.90;;;;;;4976672;28;20212;-30
2023/03/05 03:39:14;;;;;;;44.47;21.90;;;2.70;99.90;;;;;;4975383;28;20303;-30
2023/03/05 03:41:47;;;;;;;44.00;20.53;;;2.70;99.90;;;;;;4994315;28;20198;-30
2023/03/05 03:44:13;;;;;;;42.40;20.80;;;2.60;99.90;;;;;;4994353;28;20184;-31
2023/03/05 03:46:40;;;;;;;61.07;31.17;;;2.70;99.90;;;;;;4993858;28;20211;-30
2023/03/05 03:49:09;;;;;;;45.83;22.77;;;2.60;99.90;;;;;;4994131;28;20176;-30
2023/03/05 03:51:35;;;;;;;45.43;22.10;;;2.60;99.90;;;;;;4977997;28;20187;-29
2023/03/05 03:54:01;;;;;;;44.67;22.20;;;2.60;99.90;;;;;;4993824;28;20196;-29
2023/03/05 03:56:27;;;;;;;40.03;21.00;;;2.70;99.90;;;;;;4976334;28;20215;-30
2023/03/05 03:58:53;;;;;;;42.53;21.93;;;2.60;99.90;;;;;;4994148;28;20184;-30
2023/03/05 04:01:20;;;;;;;45.03;22.50;;;2.70;99.90;;;;;;4992754;28;20219;-30
2023/03/05 04:03:46;;;;;;;43.53;21.40;;;2.70;99.90;;;;;;4993583;28;20184;-31
2023/03/05 04:06:13;;;;;;;42.00;22.37;;;2.60;99.90;;;;;;4993465;28;20223;-29
2023/03/05 04:08:39;;;;;;;45.07;22.47;;;2.60;99.90;;;;;;4993775;28;20222;-29
2023/03/05 04:11:05;;;;;;;44.97;22.57;;;2.60;99.90;;;;;;4976114;28;20207;-30
2023/03/05 04:13:31;;;;;;;43.43;20.73;;;2.50;99.90;;;;;;4976221;28;20176;-30
2023/03/05 04:15:57;;;;;;;51.27;22.97;;;2.50;99.90;;;;;;4993468;28;20199;-30
2023/03/05 04:18:23;;;;;;;53.53;22.63;;;2.60;99.90;;;;;;4980038;28;20278;-29
2023/03/05 04:20:49;;;;;;;44.90;22.17;;;2.60;99.90;;;;;;4976261;28;20180;-29
2023/03/05 04:23:15;;;;;;;43.60;22.67;;;2.60;99.90;;;;;;4975295;28;20187;-29
2023/03/05 04:25:41;;;;;;;50.37;22.53;;;2.60;99.90;;;;;;4975785;28;20238;-30
2023/03/05 04:28:10;;;;;;;49.50;22.87;;;2.60;99.90;;;;;;4975814;28;20194;-29
2023/03/05 04:30:36;;;;;;;46.90;23.23;;;2.50;99.90;;;;;;4959992;28;20176;-29
2023/03/05 04:33:02;;;;;;;45.43;21.77;;;2.60;99.90;;;;;;4975462;28;20176;-29
2023/03/05 04:35:27;;;;;;;42.97;20.67;;;2.60;99.90;;;;;;4975848;28;20252;-30
2023/03/05 04:37:53;;;;;;;43.30;21.57;;;2.60;99.90;;;;;;4959092;28;20302;-30
2023/03/05 04:40:19;;;;;;;46.80;21.90;;;2.60;99.90;;;;;;4992671;28;20298;-30
2023/03/05 04:42:45;;;;;;;42.17;21.47;;;2.60;99.90;;;;;;4975437;28;20192;-29
2023/03/05 04:45:11;;;;;;;48.07;23.73;;;2.60;99.90;;;;;;4991898;28;20184;-31
2023/03/05 04:47:37;;;;;;;45.10;22.03;;;2.60;99.90;;;;;;4991054;28;20241;-29
2023/03/05 04:50:05;;;;;;;40.20;21.77;;;2.60;99.90;;;;;;4975200;28;20214;-30
2023/03/05 04:52:31;;;;;;;45.00;21.30;;;2.60;99.90;;;;;;4993058;28;20176;-30
2023/03/05 04:54:57;;;;;;;50.67;22.73;;;2.60;99.90;;;;;;4966966;28;20188;-29
2023/03/05 04:57:23;;;;;;;52.37;23.07;;;2.60;99.90;;;;;;4991798;28;20196;-29
2023/03/05 04:59:48;;;;;;;42.73;20.90;;;2.60;99.90;;;;;;4992777;28;20195;-29
2023/03/05 05:02:14;;;;;;;45.67;20.97;;;2.60;99.90;;;;;;4959246;28;20191;-29
2023/03/05 05:04:43;;;;;;;46.77;22.33;;;2.60;99.90;;;;;;4992991;28;20198;-30
2023/03/05 05:07:10;;;;;;;48.00;22.57;;;2.60;99.90;;;;;;4974938;28;20226;-29
2023/03/05 05:09:37;;;;;;;40.33;21.30;;;2.60;99.90;;;;;;4992791;28;20183;-29
2023/03/05 05:12:04;;;;;;;42.43;21.57;;;2.60;99.90;;;;;;4992289;28;20172;-30
2023/03/05 05:14:29;;;;;;;43.57;22.37;;;2.60;99.90;;;;;;4992510;28;20244;-29
2023/03/05 05:16:55;;;;;;;42.93;21.40;;;2.60;99.90;;;;;;4974946;28;20206;-30
2023/03/05 05:19:21;;;;;;;46.07;21.23;;;2.60;99.90;;;;;;4992462;28;20183;-29
2023/03/05 05:21:47;;;;;;;41.97;20.80;;;2.50;99.90;;;;;;4991166;28;20253;-29
2023/03/05 05:24:13;;;;;;;41.27;21.53;;;2.50;99.90;;;;;;4974356;28;20257;-29
2023/03/05 05:26:38;;;;;;;42.10;21.60;;;2.50;99.90;;;;;;4974390;28;20216;-29
2023/03/05 05:29:04;;;;;;;40.70;21.30;;;2.50;99.90;;;;;;4975188;28;20199;-30
2023/03/05 05:31:30;;;;;;;42.37;21.47;;;2.50;99.90;;;;;;4992275;28;20211;-30
2023/03/05 05:33:56;;;;;;;42.67;21.63;;;2.50;99.90;;;;;;4974666;28;20537;-29
2023/03/05 05:36:22;;;;;;;40.90;20.73;;;2.50;99.90;;;;;;4974166;28;20235;-29
2023/03/05 05:38:47;;;;;;;45.20;22.33;;;2.50;99.90;;;;;;4974948;28;20183;-30
2023/03/05 05:41:16;;;;;;;40.93;20.33;;;2.50;99.90;;;;;;4974671;28;20183;-29
2023/03/05 05:43:41;;;;;;;44.30;20.97;;;2.50;99.90;;;;;;4974581;28;20180;-29
2023/03/05 05:46:11;;;;;;;42.20;21.10;;;2.50;99.90;;;;;;4974475;28;20231;-29
2023/03/05 05:48:37;;;;;;;45.57;21.63;;;2.50;99.90;;;;;;4991802;28;20186;-29
2023/03/05 05:51:08;;;;;;;41.33;21.13;;;2.50;99.90;;;;;;4992618;28;20177;-30
2023/03/05 05:53:34;;;;;;;40.70;21.17;;;2.50;99.90;;;;;;4974035;28;20198;-30
2023/03/05 05:56:02;;;;;;;42.87;21.13;;;2.60;99.90;;;;;;4974269;28;20291;-31
2023/03/05 05:58:28;;;;;;;43.30;21.50;;;2.50;99.90;;;;;;4974381;28;20195;-30
2023/03/05 06:00:54;;;;;;;43.40;21.93;;;2.50;99.90;;;;;;4991754;28;20187;-30
2023/03/05 06:03:19;;;;;;;43.97;22.20;;;2.50;99.90;;;;;;4973592;28;20179;-31
2023/03/05 06:05:46;;;;;;;41.90;21.60;;;2.60;99.90;;;;;;4973852;28;20179;-31
2023/03/05 06:08:12;;;;;;;47.63;20.37;;;2.60;99.90;;;;;;4990688;28;20173;-30
2023/03/05 06:10:38;;;;;;;42.33;21.70;;;2.60;99.90;;;;;;4991857;28;20246;-30
2023/03/05 06:13:03;;;;;;;41.63;20.87;;;2.60;99.90;;;;;;4991921;28;20187;-30
2023/03/05 06:15:30;;;;;;;48.77;22.13;;;2.60;99.90;;;;;;4991434;28;20177;-31
2023/03/05 06:17:58;;;;;;;41.77;20.67;;;2.60;99.90;;;;;;4973736;28;20210;-30
2023/03/05 06:20:24;;;;;;;41.83;21.13;;;2.60;99.90;;;;;;4974466;28;20176;-30
2023/03/05 06:22:49;;;;;;;42.67;20.53;;;2.70;99.90;;;;;;4991417;28;20195;-30
2023/03/05 06:25:15;;;;;;;41.73;20.73;;;2.60;99.90;;;;;;4973858;28;20192;-30
2023/03/05 06:27:41;;;;;;;43.67;22.53;;;2.60;99.90;;;;;;4990077;28;20212;-30
2023/03/05 06:30:08;;;;;;;40.67;21.20;;;2.60;99.90;;;;;;4991721;28;20230;-31
2023/03/05 06:32:34;;;;;;;44.70;24.00;;;2.60;99.90;;;;;;4973630;28;20179;-30
2023/03/05 06:35:00;;;;;;;45.97;21.90;;;2.60;99.90;;;;;;4973721;28;20180;-30
2023/03/05 06:37:26;;;;;;;43.13;21.13;;;2.60;99.90;;;;;;4973716;28;20268;-30
2023/03/05 06:39:52;;;;;;;56.00;29.90;;;2.60;99.90;;;;;;4974357;28;20290;-31
2023/03/05 06:42:18;;;;;;;62.33;30.57;;;2.60;99.90;;;;;;4970209;28;20220;-30
2023/03/05 06:44:44;;;;;;;47.70;26.97;;;2.60;99.90;;;;;;4963894;28;20191;-30
2023/03/05 06:47:10;;;;;;;49.43;23.90;;;2.60;99.90;;;;;;4972006;28;20233;-31
2023/03/05 06:49:37;;;;;;;47.47;22.60;;;2.60;99.90;;;;;;4990889;28;20176;-30
2023/03/05 06:52:04;;;;;;;38.30;22.03;;;2.60;99.90;;;;;;4974311;28;20211;-31
2023/03/05 06:54:31;;;;;;;44.37;24.07;;;2.60;99.90;;;;;;4973480;28;20247;-30
2023/03/05 06:56:57;;;;;;;46.43;25.10;;;2.60;99.90;;;;;;4974036;28;20200;-30
2023/03/05 06:59:23;;;;;;;41.93;21.60;;;2.60;99.90;;;;;;4991177;28;20195;-31
2023/03/05 07:01:49;;;;;;;40.90;19.63;;;2.60;99.90;;;;;;4974112;28;20195;-31
2023/03/05 07:04:15;;;;;;;48.10;22.23;;;2.60;99.90;;;;;;4973598;28;20179;-30
2023/03/05 07:06:41;;;;;;;40.97;20.63;;;2.60;99.90;;;;;;4973744;28;20223;-31
2023/03/05 07:09:10;;;;;;;43.23;21.23;;;2.60;99.90;;;;;;4989807;28;20307;-30
2023/03/05 07:11:35;;;;;;;40.03;20.40;;;2.70;99.90;;;;;;4991224;28;20274;-30
2023/03/05 07:14:02;;;;;;;40.10;20.53;;;2.70;99.90;;;;;;4974324;28;20275;-30
2023/03/05 07:16:31;;;;;;;42.43;22.17;;;2.70;99.90;;;;;;4957794;28;20210;-30
2023/03/05 07:18:58;;;;;;;41.20;20.97;;;2.70;99.90;;;;;;4989551;28;20191;-30
2023/03/05 07:21:27;;;;;;;40.40;20.87;;;2.70;99.90;;;;;;4977409;28;20183;-30
2023/03/05 07:23:56;;;;;;;45.70;23.03;;;2.70;99.90;;;;;;4994281;28;20210;-31
2023/03/05 07:26:23;;;;;;;42.67;21.57;;;2.70;99.90;;;;;;4960445;28;20307;-30
2023/03/05 07:28:49;;;;;;;39.83;20.50;;;2.70;99.90;;;;;;4976672;28;20247;-30
2023/03/05 07:31:21;;;;;;;37.30;19.57;;;2.80;99.90;;;;;;4977201;28;20228;-30
2023/03/05 07:33:49;;;;;;;35.47;19.37;;;2.80;99.90;;;;;;4976121;28;20184;-31
2023/03/05 07:36:15;;;;;;;36.30;19.57;;;2.80;99.90;;;;;;4994432;28;20215;-31
2023/03/05 07:38:41;;;;;;;41.10;19.67;;;2.80;99.90;;;;;;4960362;28;20180;-30
2023/03/05 07:41:11;;;;;;;42.67;20.17;;;2.80;99.90;;;;;;4994722;28;20588;-30
2023/03/05 07:43:38;;;;;;;43.90;21.37;;;2.80;99.90;;;;;;4999964;28;20271;-31
2023/03/05 07:46:10;;;;;;;44.53;22.40;;;2.90;99.90;;;;;;4984138;28;20218;-31
2023/03/05 07:48:36;;;;;;;41.27;21.20;;;2.90;99.90;;;;;;4981676;28;20187;-31
2023/03/05 07:51:13;;;;;;;43.17;20.40;;;2.90;99.90;;;;;;4977526;28;20239;-29
2023/03/05 07:53:39;;;;;;;40.60;20.73;;;3.00;99.90;;;;;;4976418;28;20187;-29
2023/03/05 07:56:06;;;;;;;42.87;21.40;;;3.00;99.90;;;;;;4976686;28;20196;-30
2023/03/05 07:58:31;;;;;;;41.03;20.80;;;3.00;99.90;;;;;;4977775;28;20230;-31
2023/03/05 08:00:57;;;;;;;46.47;22.17;;;3.00;99.90;;;;;;4994504;28;20180;-30
2023/03/05 08:03:23;;;;;;;46.27;21.40;;;3.10;99.90;;;;;;4992585;28;20258;-29
2023/03/05 08:05:49;;;;;;;43.37;21.27;;;3.10;99.90;;;;;;4992375;28;20192;-30
2023/03/05 08:08:15;;;;;;;42.80;21.53;;;3.10;99.90;;;;;;4976495;28;20262;-30
2023/03/05 08:10:41;;;;;;;40.60;19.40;;;3.10;99.90;;;;;;4975027;28;20195;-30
2023/03/05 08:13:07;;;;;;;41.00;20.37;;;3.10;99.90;;;;;;4986556;28;20179;-29
2023/03/05 08:15:33;;;;;;;34.90;18.00;;;3.20;99.90;;;;;;4940587;28;20196;-31
2023/03/05 08:17:59;;;;;;;38.63;19.47;;;3.20;99.90;;;;;;4967278;28;20208;-30
2023/03/05 08:20:26;;;;;;;39.73;20.33;;;3.20;99.90;;;;;;4976863;28;20211;-29
2023/03/05 08:22:51;;;;;;;41.37;20.80;;;3.20;99.90;;;;;;4975848;28;20187;-30
2023/03/05 08:25:17;;;;;;;42.33;19.87;;;3.30;99.90;;;;;;4974971;28;20251;-30
2023/03/05 08:27:46;;;;;;;38.57;19.53;;;3.30;99.90;;;;;;4976053;28;20219;-30
2023/03/05 08:30:15;;;;;;;37.33;19.00;;;3.30;99.90;;;;;;4975947;28;20180;-29
2023/03/05 08:32:41;;;;;;;38.97;19.77;;;3.30;99.90;;;;;;4976053;28;20176;-30
2023/03/05 08:35:08;;;;;;;39.47;19.93;;;3.40;99.90;;;;;;4975430;28;20733;-31
2023/03/05 08:37:35;;;;;;;37.63;19.03;;;3.40;99.90;;;;;;4959382;28;20227;-30
2023/03/05 08:40:01;;;;;;;41.20;19.93;;;3.40;99.90;;;;;;4975442;28;20206;-30
2023/03/05 08:42:26;;;;;;;41.23;21.67;;;3.50;99.90;;;;;;4975506;28;20188;-31
2023/03/05 08:44:52;;;;;;;39.70;19.70;;;3.50;99.90;;;;;;4975065;28;20202;-30
2023/03/05 08:47:19;;;;;;;37.60;20.07;;;3.60;99.90;;;;;;4991486;28;20210;-30
2023/03/05 08:49:45;;;;;;;33.07;18.70;;;3.70;99.90;;;;;;4956253;28;20181;-31
2023/03/05 08:52:12;;;;;;;35.33;18.43;;;3.70;99.90;;;;;;4991815;28;20531;-30
2023/03/05 08:54:37;;;;;;;37.53;19.33;;;3.80;99.90;;;;;;4972503;28;20198;-30
2023/03/05 08:57:04;;;;;;;35.53;18.90;;;3.80;99.90;;;;;;4992397;28;20676;-30
2023/03/05 08:59:30;;;;;;;42.43;21.03;;;3.90;99.90;;;;;;4992379;28;20188;-30
2023/03/05 09:02:00;;;;;;;38.07;18.93;;;4.00;99.90;;;;;;4991790;28;20186;-30
2023/03/05 09:04:26;;;;;;;35.53;18.37;;;4.00;99.90;;;;;;4970844;28;20180;-30
2023/03/05 09:06:52;;;;;;;35.57;18.20;;;4.10;99.90;;;;;;4988138;28;20235;-29
2023/03/05 09:09:20;;;;;;;36.23;18.53;;;4.10;99.90;;;;;;4982621;28;20182;-30
2023/03/05 09:11:46;;;;;;;35.53;19.20;;;4.10;99.90;;;;;;5000862;28;20199;-30
2023/03/05 09:14:12;;;;;;;34.60;18.10;;;4.20;99.90;;;;;;5002840;28;20263;-30
2023/03/05 09:16:39;;;;;;;34.70;17.87;;;4.20;99.90;;;;;;5001861;28;20281;-30
2023/03/05 09:19:09;;;;;;;38.67;18.60;;;4.30;99.90;;;;;;4984131;28;20183;-30
2023/03/05 09:21:35;;;;;;;32.27;17.97;;;4.30;99.90;;;;;;5003212;28;20246;-30
2023/03/05 09:24:02;;;;;;;32.77;18.33;;;4.30;99.90;;;;;;4968990;28;20214;-30
2023/03/05 09:26:28;;;;;;;29.77;16.83;;;4.30;99.90;;;;;;4986444;28;20208;-30
2023/03/05 09:28:54;;;;;;;31.67;17.93;;;4.40;99.90;;;;;;4999484;28;20182;-31
2023/03/05 09:31:20;;;;;;;32.83;17.27;;;4.40;99.90;;;;;;4988861;28;20190;-30
2023/03/05 09:33:49;;;;;;;33.20;17.47;;;4.50;99.90;;;;;;4994474;28;20175;-31
2023/03/05 09:36:23;;;;;;;30.73;16.30;;;4.50;99.90;;;;;;5000312;28;20211;-30
2023/03/05 09:38:49;;;;;;;32.93;16.77;;;4.60;99.90;;;;;;4964099;28;20208;-30
2023/03/05 09:42:02;;;;;;;32.40;17.63;;;4.60;99.90;;;;;;5002235;28;20184;-30
2023/03/05 09:44:53;;;;;;;36.60;19.00;;;4.60;99.90;;;;;;4983275;28;20188;-30
2023/03/05 09:47:42;;;;;;;33.13;16.73;;;4.60;99.90;;;;;;4999581;28;20226;-29
2023/03/05 09:50:39;;;;;;;36.83;17.83;;;4.60;99.90;;;;;;5001808;28;20188;-30
2023/03/05 09:53:37;;;;;;;30.50;16.33;;;4.70;99.90;;;;;;4998246;28;20215;-30
2023/03/05 09:56:13;;;;;;;30.70;16.60;;;4.70;99.90;;;;;;4951974;28;20210;-29
2023/03/05 09:58:47;;;;;;;27.97;14.90;;;4.80;99.90;;;;;;4999234;28;20187;-30
2023/03/05 10:01:37;;;;;;;36.97;18.73;;;4.80;99.90;;;;;;4999628;28;20181;-30
2023/03/05 10:04:11;;;;;;;28.83;16.10;;;4.90;99.90;;;;;;4998033;28;20237;-29
2023/03/05 10:06:43;;;;;;;33.73;17.43;;;5.00;99.90;;;;;;4997669;28;20243;-30
2023/03/05 10:09:09;;;;;;;31.00;16.33;;;5.00;99.90;;;;;;4964362;28;20171;-30
2023/03/05 10:11:41;;;;;;;31.67;16.40;;;5.00;99.90;;;;;;4981956;28;20180;-30
2023/03/05 10:14:32;;;;;;;30.17;16.63;;;5.10;99.90;;;;;;4968374;28;20193;-30
2023/03/05 10:17:19;;;;;;;32.57;16.17;;;5.10;99.90;;;;;;4992602;28;20212;-30
2023/03/05 10:19:44;;;;;;;31.47;15.50;;;5.30;99.90;;;;;;4982253;28;20183;-30
2023/03/05 10:22:17;;;;;;;30.53;15.80;;;5.30;99.90;;;;;;4965370;28;20173;-29
2023/03/05 10:25:21;;;;;;;25.87;13.97;;;5.40;99.90;;;;;;4966806;28;20270;-31
2023/03/05 10:27:53;;;;;;;25.47;13.83;;;5.40;99.90;;;;;;4977083;28;20208;-31
2023/03/05 10:30:42;;;;;;;23.93;13.50;;;5.50;99.90;;;;;;4976485;28;20221;-31
2023/03/05 10:33:48;;;;;;;27.20;14.13;;;5.60;99.90;;;;;;4986960;28;20286;-30
2023/03/05 10:36:45;;;;;;;25.87;14.50;;;5.60;99.90;;;;;;4978776;28;20254;-31
2023/03/05 10:39:43;;;;;;;27.63;15.03;;;5.70;99.90;;;;;;4975220;28;20262;-31
2023/03/05 10:42:41;;;;;;;24.77;13.30;;;5.70;99.90;;;;;;4978452;28;20205;-30
2023/03/05 10:45:25;;;;;;;22.53;13.87;;;5.80;99.90;;;;;;4986926;28;20199;-30
2023/03/05 10:48:21;;;;;;;25.03;14.33;;;5.90;99.90;;;;;;4988519;28;20219;-30
2023/03/05 10:51:04;;;;;;;22.87;13.17;;;6.00;99.90;;;;;;4975080;28;20177;-31
2023/03/05 10:53:48;;;;;;;21.67;13.63;;;6.10;99.90;;;;;;4991586;28;20189;-31
2023/03/05 10:56:23;;;;;;;24.63;13.63;;;6.20;99.90;;;;;;4980729;28;20213;-31
2023/03/05 10:58:57;;;;;;;24.87;13.90;;;6.30;99.90;;;;;;4978297;28;20195;-32
2023/03/05 11:01:30;;;;;;;23.30;12.97;;;6.40;99.90;;;;;;4997245;28;20183;-30
2023/03/05 11:04:27;;;;;;;20.90;13.10;;;6.50;99.90;;;;;;4991612;28;20233;-31
2023/03/05 11:06:56;;;;;;;21.37;12.83;;;6.50;99.90;;;;;;4982614;28;20297;-31
2023/03/05 11:09:36;;;;;;;23.13;13.73;;;6.60;99.90;;;;;;4998690;28;20191;-30
2023/03/05 11:12:16;;;;;;;21.10;13.80;;;6.60;99.90;;;;;;4972641;28;20205;-31
2023/03/05 11:15:05;;;;;;;25.67;15.20;;;6.60;99.90;;;;;;4979894;28;20186;-31
2023/03/05 11:17:36;;;;;;;23.20;13.63;;;6.60;99.90;;;;;;4975371;28;20232;-31
2023/03/05 11:20:27;;;;;;;26.60;13.77;;;6.60;99.90;;;;;;4976810;28;20191;-32
2023/03/05 11:23:25;;;;;;;23.43;13.90;;;6.50;99.90;;;;;;4977827;28;20209;-31
2023/03/05 11:26:01;;;;;;;22.07;13.43;;;6.40;99.90;;;;;;4990539;28;20192;-32
2023/03/05 11:28:37;;;;;;;21.17;13.10;;;6.40;99.90;;;;;;5005113;28;20185;-32
2023/03/05 11:31:16;;;;;;;22.17;12.90;;;6.30;99.90;;;;;;4979258;28;20185;-32
2023/03/05 11:34:02;;;;;;;18.70;12.83;;;6.30;99.90;;;;;;4981847;28;20673;-31
2023/03/05 11:36:38;;;;;;;20.63;12.93;;;6.30;99.90;;;;;;4999899;28;20208;-31
2023/03/05 11:39:06;;;;;;;18.27;12.00;;;6.30;99.90;;;;;;4999334;28;20189;-31
2023/03/05 11:41:51;;;;;;;22.60;12.00;;;6.20;99.90;;;;;;5002962;28;20193;-31
2023/03/05 11:44:28;;;;;;;19.83;11.67;;;6.20;99.90;;;;;;5001275;28;20177;-32
2023/03/05 11:47:29;;;;;;;20.93;12.50;;;6.20;99.90;;;;;;5001399;28;20209;-31
2023/03/05 11:50:17;;;;;;;20.03;11.93;;;6.10;99.90;;;;;;4983258;28;20178;-31
2023/03/05 11:52:54;;;;;;;57.17;31.50;;;6.20;99.90;;;;;;5011943;23;20221;-38
2023/03/05 11:55:45;;;;;;;45.90;24.67;;;6.10;99.90;;;;;;4991521;28;20183;-39
2023/03/05 11:58:45;;;;;;;24.83;14.00;;;6.10;99.90;;;;;;4982944;28;20192;-37
2023/03/05 12:01:26;;;;;;;19.93;12.03;;;6.20;99.90;;;;;;4977305;28;20222;-39
2023/03/05 12:03:54;;;;;;;18.97;11.97;;;6.10;99.90;;;;;;4997860;28;20177;-37
2023/03/05 12:07:14;;;;;;;20.93;12.67;;;6.20;99.90;;;;;;5000168;28;20217;-39
2023/03/05 12:09:48;;;;;;;22.63;12.53;;;6.20;99.90;;;;;;4987818;28;20221;-40
2023/03/05 12:12:52;;;;;;;16.13;10.33;;;6.10;99.90;;;;;;4993431;28;20201;-39
2023/03/05 12:15:36;;;;;;;22.87;13.53;;;6.00;99.90;;;;;;4969168;28;20221;-39
2023/03/05 12:18:32;;;;;;;26.13;15.10;;;5.90;99.90;;;;;;4992875;28;20187;-38
2023/03/05 12:21:25;;;;;;;21.90;12.03;;;5.90;99.90;;;;;;4966586;28;20249;-38
2023/03/05 12:23:57;;;;;;;46.93;32.07;;;5.80;99.90;;;;;;4996679;28;20205;-39
2023/03/05 12:26:51;;;;;;;25.10;17.10;;;5.80;99.90;;;;;;4969825;28;20215;-38
2023/03/05 12:29:44;;;;;;;19.27;12.10;;;5.70;99.90;;;;;;4983007;28;20302;-42
2023/03/05 12:32:22;;;;;;;32.10;19.73;;;5.80;99.90;;;;;;4988853;28;20232;-43
2023/03/05 12:34:49;;;;;;;21.20;11.47;;;5.80;99.90;;;;;;4967645;28;20189;-39
2023/03/05 12:37:20;;;;;;;17.73;10.87;;;5.80;99.90;;;;;;4975183;28;20178;-40
2023/03/05 12:40:11;;;;;;;18.40;10.90;;;5.80;99.90;;;;;;4975080;28;20919;-39
2023/03/05 12:42:36;;;;;;;21.30;10.57;;;5.90;99.90;;;;;;4977303;28;20210;-39
2023/03/05 12:45:08;;;;;;;21.53;12.07;;;5.90;99.90;;;;;;4977543;28;20169;-41
2023/03/05 12:47:39;;;;;;;23.87;12.73;;;5.90;99.90;;;;;;4975647;28;20207;-38
2023/03/05 12:50:27;;;;;;;23.73;12.17;;;5.90;99.90;;;;;;4959257;28;20184;-37
2023/03/05 12:53:01;;;;;;;20.83;11.87;;;5.90;99.90;;;;;;4976771;28;20210;-38